NCAR-RAP Real-Time Weather Data

Output produced by METARs form (12 May 2021  11:51 UTC)
found at http://weather.rap.ucar.edu/surface/
 
KPRC 121053Z AUTO 19005KT 10SM CLR 09/M06 A3013 RMK AO2 SLP137 T00941056
KPRC 120953Z AUTO 19004KT 10SM CLR 09/M04 A3012 RMK AO2 SLP135 T00891039
KPRC 120853Z AUTO 23003KT 10SM CLR 10/M03 A3012 RMK AO2 SLP133 T01001033 51004
KPRC 120753Z AUTO 18007KT 10SM CLR 12/M04 A3012 RMK AO2 SLP130 T01171044
KPRC 120653Z AUTO 18007KT 10SM CLR 13/M05 A3011 RMK AO2 SLP126 T01331050 402670067
KPRC 120553Z AUTO 19005KT 10SM CLR 13/M01 A3010 RMK AO2 SLP127 T01331006 10250 20128 51018
KPRC 120453Z AUTO 00000KT 10SM CLR 17/M06 A3010 RMK AO2 SLP119 T01721061
KPRC 120353Z 00000KT 10SM CLR 18/M06 A3007 RMK AO2 SLP111 T01831061
KPRC 120253Z 24008KT 10SM CLR 21/M07 A3004 RMK AO2 SLP106 T02061067 53009
KPRC 120153Z 25010KT 10SM CLR 23/M07 A3002 RMK AO2 SLP102 T02281067
KPRC 120053Z 27010KT 10SM CLR 24/M08 A3002 RMK AO2 SLP104 T02391078
KPRC 112353Z 19008G16KT 10SM CLR 24/M08 A3001 RMK AO2 SLP099 T02441078 10267 20217 56005
KPRC 112253Z 23012G18KT 10SM CLR 25/M08 A3001 RMK AO2 SLP097 T02501078
KPRC 112153Z 25010KT 10SM CLR 26/M07 A3001 RMK AO2 SLP096 T02561072